Terminal Aerodrome Forecast
Issued by NWS

Home | Current Version | Previous Version | Text Only | Print | Product List | Glossary On
Versions: 1 2 3 4 5 6 7 8 9 10 11 12 13 14 15 16 17 18 19 20 21 22 23 24 25 26 27 28 29 30 31 32 33 34 35 36 37 38 39 40 41
000
FTUS43 KGLD 201003 AAA
TAFMCK
TAF AMD
KMCK 201003Z 2010/2106 01008KT 5SM BR FEW006 BKN012 OVC019
     FM201100 36007KT 5SM BR BKN008
     FM201500 01007KT P6SM OVC010
     FM201800 04007KT P6SM OVC030
     FM202300 04008KT P6SM OVC040=

USA.gov is the U.S. government's official web portal to all federal, state and local government web resources and services.